sensor_id;sensor_type;location;lat;lon;timestamp;P1;durP1;ratioP1;P2;durP2;ratioP2
54871;SDS011;43914;57.680;11.982;2023-04-01T00:01:17;5.10;;;1.50;;
54871;SDS011;43914;57.680;11.982;2023-04-01T00:03:44;5.10;;;1.50;;
54871;SDS011;43914;57.680;11.982;2023-04-01T00:06:16;5.40;;;1.70;;
54871;SDS011;43914;57.680;11.982;2023-04-01T00:08:43;4.80;;;1.50;;
54871;SDS011;43914;57.680;11.982;2023-04-01T00:11:10;4.80;;;1.50;;
54871;SDS011;43914;57.680;11.982;2023-04-01T00:13:40;4.50;;;1.60;;
54871;SDS011;43914;57.680;11.982;2023-04-01T00:16:11;4.90;;;1.40;;
54871;SDS011;43914;57.680;11.982;2023-04-01T00:18:37;6.00;;;1.50;;
54871;SDS011;43914;57.680;11.982;2023-04-01T00:21:03;5.30;;;1.40;;
54871;SDS011;43914;57.680;11.982;2023-04-01T00:23:30;5.70;;;1.60;;
54871;SDS011;43914;57.680;11.982;2023-04-01T00:25:56;4.20;;;1.30;;
54871;SDS011;43914;57.680;11.982;2023-04-01T00:28:24;5.50;;;1.80;;
54871;SDS011;43914;57.680;11.982;2023-04-01T00:30:49;6.80;;;1.60;;
54871;SDS011;43914;57.680;11.982;2023-04-01T00:33:18;4.00;;;1.40;;
54871;SDS011;43914;57.680;11.982;2023-04-01T00:35:44;3.80;;;1.20;;
54871;SDS011;43914;57.680;11.982;2023-04-01T00:38:10;4.10;;;1.30;;
54871;SDS011;43914;57.680;11.982;2023-04-01T00:40:41;5.50;;;1.70;;
54871;SDS011;43914;57.680;11.982;2023-04-01T00:43:17;5.70;;;1.60;;
54871;SDS011;43914;57.680;11.982;2023-04-01T00:45:45;4.30;;;1.60;;
54871;SDS011;43914;57.680;11.982;2023-04-01T00:48:14;4.00;;;1.40;;
54871;SDS011;43914;57.680;11.982;2023-04-01T00:50:50;5.20;;;1.70;;
54871;SDS011;43914;57.680;11.982;2023-04-01T00:53:20;4.90;;;1.70;;
54871;SDS011;43914;57.680;11.982;2023-04-01T00:55:49;4.60;;;1.30;;
54871;SDS011;43914;57.680;11.982;2023-04-01T00:58:37;5.70;;;1.80;;
54871;SDS011;43914;57.680;11.982;2023-04-01T01:01:06;4.10;;;1.30;;
54871;SDS011;43914;57.680;11.982;2023-04-01T01:03:35;5.20;;;1.50;;
54871;SDS011;43914;57.680;11.982;2023-04-01T01:06:22;5.50;;;1.50;;
54871;SDS011;43914;57.680;11.982;2023-04-01T01:08:57;5.60;;;1.60;;
54871;SDS011;43914;57.680;11.982;2023-04-01T01:17:27;5.90;;;1.30;;
54871;SDS011;43914;57.680;11.982;2023-04-01T01:27:49;4.70;;;1.40;;
54871;SDS011;43914;57.680;11.982;2023-04-01T01:31:00;3.50;;;1.30;;
54871;SDS011;43914;57.680;11.982;2023-04-01T01:35:59;4.90;;;1.60;;
54871;SDS011;43914;57.680;11.982;2023-04-01T01:38:31;4.50;;;1.40;;
54871;SDS011;43914;57.680;11.982;2023-04-01T01:40:59;4.70;;;1.40;;
54871;SDS011;43914;57.680;11.982;2023-04-01T01:43:30;4.30;;;1.50;;
54871;SDS011;43914;57.680;11.982;2023-04-01T01:46:12;4.70;;;1.40;;
54871;SDS011;43914;57.680;11.982;2023-04-01T01:48:42;2.80;;;1.10;;
54871;SDS011;43914;57.680;11.982;2023-04-01T01:51:09;4.70;;;1.40;;
54871;SDS011;43914;57.680;11.982;2023-04-01T01:53:35;5.30;;;1.40;;
54871;SDS011;43914;57.680;11.982;2023-04-01T01:56:01;3.70;;;1.30;;
54871;SDS011;43914;57.680;11.982;2023-04-01T02:01:06;4.60;;;1.60;;
54871;SDS011;43914;57.680;11.982;2023-04-01T02:03:37;6.00;;;1.60;;
54871;SDS011;43914;57.680;11.982;2023-04-01T02:06:07;5.00;;;1.30;;
54871;SDS011;43914;57.680;11.982;2023-04-01T02:11:12;4.80;;;1.60;;
54871;SDS011;43914;57.680;11.982;2023-04-01T02:16:26;4.90;;;1.60;;
54871;SDS011;43914;57.680;11.982;2023-04-01T02:18:57;5.70;;;1.50;;
54871;SDS011;43914;57.680;11.982;2023-04-01T02:21:26;5.20;;;1.40;;
54871;SDS011;43914;57.680;11.982;2023-04-01T02:23:56;4.20;;;1.40;;
54871;SDS011;43914;57.680;11.982;2023-04-01T02:26:24;4.70;;;1.50;;
54871;SDS011;43914;57.680;11.982;2023-04-01T02:28:52;4.60;;;1.50;;
54871;SDS011;43914;57.680;11.982;2023-04-01T02:31:18;4.20;;;1.40;;
54871;SDS011;43914;57.680;11.982;2023-04-01T02:33:45;4.60;;;1.50;;
54871;SDS011;43914;57.680;11.982;2023-04-01T02:36:15;3.70;;;1.40;;
54871;SDS011;43914;57.680;11.982;2023-04-01T02:38:43;4.30;;;1.40;;
54871;SDS011;43914;57.680;11.982;2023-04-01T02:41:10;6.50;;;1.60;;
54871;SDS011;43914;57.680;11.982;2023-04-01T02:43:36;5.20;;;1.60;;
54871;SDS011;43914;57.680;11.982;2023-04-01T02:46:02;4.50;;;1.40;;
54871;SDS011;43914;57.680;11.982;2023-04-01T02:48:29;4.80;;;1.40;;
54871;SDS011;43914;57.680;11.982;2023-04-01T02:50:55;4.90;;;1.60;;
54871;SDS011;43914;57.680;11.982;2023-04-01T02:53:21;4.30;;;1.30;;
54871;SDS011;43914;57.680;11.982;2023-04-01T02:55:46;4.50;;;1.40;;
54871;SDS011;43914;57.680;11.982;2023-04-01T02:58:15;5.40;;;1.50;;
54871;SDS011;43914;57.680;11.982;2023-04-01T03:00:41;4.10;;;1.30;;
54871;SDS011;43914;57.680;11.982;2023-04-01T03:03:08;4.70;;;1.40;;
54871;SDS011;43914;57.680;11.982;2023-04-01T03:05:34;3.90;;;1.40;;
54871;SDS011;43914;57.680;11.982;2023-04-01T03:07:59;4.60;;;1.40;;
54871;SDS011;43914;57.680;11.982;2023-04-01T03:10:25;4.50;;;1.50;;
54871;SDS011;43914;57.680;11.982;2023-04-01T03:12:50;3.60;;;1.30;;
54871;SDS011;43914;57.680;11.982;2023-04-01T03:15:16;7.00;;;1.60;;
54871;SDS011;43914;57.680;11.982;2023-04-01T03:17:41;5.30;;;1.60;;
54871;SDS011;43914;57.680;11.982;2023-04-01T03:20:08;3.60;;;1.30;;
54871;SDS011;43914;57.680;11.982;2023-04-01T03:22:35;4.40;;;1.30;;
54871;SDS011;43914;57.680;11.982;2023-04-01T03:25:02;4.90;;;1.30;;
54871;SDS011;43914;57.680;11.982;2023-04-01T03:27:28;4.80;;;1.40;;
54871;SDS011;43914;57.680;11.982;2023-04-01T03:29:53;4.40;;;1.30;;
54871;SDS011;43914;57.680;11.982;2023-04-01T03:32:19;4.40;;;1.30;;
54871;SDS011;43914;57.680;11.982;2023-04-01T03:34:44;4.20;;;1.30;;
54871;SDS011;43914;57.680;11.982;2023-04-01T03:37:10;6.50;;;1.50;;
54871;SDS011;43914;57.680;11.982;2023-04-01T03:39:35;3.90;;;1.40;;
54871;SDS011;43914;57.680;11.982;2023-04-01T03:42:01;5.40;;;1.50;;
54871;SDS011;43914;57.680;11.982;2023-04-01T03:44:30;4.00;;;1.30;;
54871;SDS011;43914;57.680;11.982;2023-04-01T03:46:57;4.50;;;1.30;;
54871;SDS011;43914;57.680;11.982;2023-04-01T03:49:22;7.00;;;1.40;;
54871;SDS011;43914;57.680;11.982;2023-04-01T03:51:48;5.00;;;1.30;;
54871;SDS011;43914;57.680;11.982;2023-04-01T03:54:13;4.30;;;1.50;;
54871;SDS011;43914;57.680;11.982;2023-04-01T03:56:39;3.10;;;1.10;;
54871;SDS011;43914;57.680;11.982;2023-04-01T03:59:05;4.40;;;1.50;;
54871;SDS011;43914;57.680;11.982;2023-04-01T04:01:32;3.60;;;1.30;;
54871;SDS011;43914;57.680;11.982;2023-04-01T04:03:58;4.10;;;1.30;;
54871;SDS011;43914;57.680;11.982;2023-04-01T04:06:24;4.70;;;1.40;;
54871;SDS011;43914;57.680;11.982;2023-04-01T04:08:51;6.40;;;1.40;;
54871;SDS011;43914;57.680;11.982;2023-04-01T04:11:16;4.10;;;1.40;;
54871;SDS011;43914;57.680;11.982;2023-04-01T04:13:43;3.20;;;1.30;;
54871;SDS011;43914;57.680;11.982;2023-04-01T04:16:09;4.80;;;1.30;;
54871;SDS011;43914;57.680;11.982;2023-04-01T04:18:35;3.30;;;1.10;;
54871;SDS011;43914;57.680;11.982;2023-04-01T04:21:01;5.90;;;1.50;;
54871;SDS011;43914;57.680;11.982;2023-04-01T04:23:27;3.90;;;1.30;;
54871;SDS011;43914;57.680;11.982;2023-04-01T04:26:02;4.10;;;1.30;;
54871;SDS011;43914;57.680;11.982;2023-04-01T04:28:29;4.00;;;1.30;;
54871;SDS011;43914;57.680;11.982;2023-04-01T04:30:54;3.80;;;1.40;;
54871;SDS011;43914;57.680;11.982;2023-04-01T04:33:21;4.80;;;1.40;;
54871;SDS011;43914;57.680;11.982;2023-04-01T04:35:47;3.50;;;1.30;;
54871;SDS011;43914;57.680;11.982;2023-04-01T04:38:13;5.30;;;1.30;;
54871;SDS011;43914;57.680;11.982;2023-04-01T04:40:39;4.10;;;1.30;;
54871;SDS011;43914;57.680;11.982;2023-04-01T04:43:06;4.00;;;1.30;;
54871;SDS011;43914;57.680;11.982;2023-04-01T04:45:32;6.00;;;1.30;;
54871;SDS011;43914;57.680;11.982;2023-04-01T04:47:57;4.40;;;1.30;;
54871;SDS011;43914;57.680;11.982;2023-04-01T04:50:23;4.00;;;1.30;;
54871;SDS011;43914;57.680;11.982;2023-04-01T04:52:49;4.00;;;1.20;;
54871;SDS011;43914;57.680;11.982;2023-04-01T04:55:15;3.40;;;1.10;;
54871;SDS011;43914;57.680;11.982;2023-04-01T04:57:40;5.30;;;1.50;;
54871;SDS011;43914;57.680;11.982;2023-04-01T05:00:06;3.90;;;1.30;;
54871;SDS011;43914;57.680;11.982;2023-04-01T05:02:33;4.50;;;1.40;;
54871;SDS011;43914;57.680;11.982;2023-04-01T05:04:59;3.30;;;1.20;;
54871;SDS011;43914;57.680;11.982;2023-04-01T05:07:25;5.50;;;1.40;;
54871;SDS011;43914;57.680;11.982;2023-04-01T05:09:50;5.20;;;1.50;;
54871;SDS011;43914;57.680;11.982;2023-04-01T05:12:16;4.40;;;1.20;;
54871;SDS011;43914;57.680;11.982;2023-04-01T05:14:42;4.80;;;1.40;;
54871;SDS011;43914;57.680;11.982;2023-04-01T05:17:08;4.00;;;1.20;;
54871;SDS011;43914;57.680;11.982;2023-04-01T05:19:35;4.30;;;1.40;;
54871;SDS011;43914;57.680;11.982;2023-04-01T05:22:01;3.00;;;1.20;;
54871;SDS011;43914;57.680;11.982;2023-04-01T05:24:26;3.90;;;1.10;;
54871;SDS011;43914;57.680;11.982;2023-04-01T05:26:52;3.50;;;1.20;;
54871;SDS011;43914;57.680;11.982;2023-04-01T05:29:17;4.90;;;1.30;;
54871;SDS011;43914;57.680;11.982;2023-04-01T05:31:43;5.40;;;1.40;;
54871;SDS011;43914;57.680;11.982;2023-04-01T05:34:08;2.70;;;1.10;;
54871;SDS011;43914;57.680;11.982;2023-04-01T05:36:34;3.90;;;1.20;;
54871;SDS011;43914;57.680;11.982;2023-04-01T05:39:00;6.20;;;1.40;;
54871;SDS011;43914;57.680;11.982;2023-04-01T05:41:26;2.70;;;1.00;;
54871;SDS011;43914;57.680;11.982;2023-04-01T05:43:51;3.80;;;1.20;;
54871;SDS011;43914;57.680;11.982;2023-04-01T05:46:17;3.20;;;1.20;;
54871;SDS011;43914;57.680;11.982;2023-04-01T05:48:42;3.90;;;1.30;;
54871;SDS011;43914;57.680;11.982;2023-04-01T05:51:12;6.50;;;1.20;;
54871;SDS011;43914;57.680;11.982;2023-04-01T05:53:38;3.00;;;1.00;;
54871;SDS011;43914;57.680;11.982;2023-04-01T05:56:04;4.30;;;1.20;;
54871;SDS011;43914;57.680;11.982;2023-04-01T05:58:30;3.40;;;1.20;;
54871;SDS011;43914;57.680;11.982;2023-04-01T06:01:03;5.00;;;1.20;;
54871;SDS011;43914;57.680;11.982;2023-04-01T06:03:30;3.50;;;1.20;;
54871;SDS011;43914;57.680;11.982;2023-04-01T06:05:56;4.00;;;1.20;;
54871;SDS011;43914;57.680;11.982;2023-04-01T06:08:21;3.40;;;1.10;;
54871;SDS011;43914;57.680;11.982;2023-04-01T06:22:31;4.80;;;1.20;;
54871;SDS011;43914;57.680;11.982;2023-04-01T06:30:38;3.80;;;1.10;;
54871;SDS011;43914;57.680;11.982;2023-04-01T06:33:13;4.00;;;1.10;;
54871;SDS011;43914;57.680;11.982;2023-04-01T06:46:57;2.20;;;1.00;;
54871;SDS011;43914;57.680;11.982;2023-04-01T06:52:23;5.50;;;1.20;;
54871;SDS011;43914;57.680;11.982;2023-04-01T06:54:58;4.90;;;1.00;;
54871;SDS011;43914;57.680;11.982;2023-04-01T06:57:43;3.30;;;1.20;;
54871;SDS011;43914;57.680;11.982;2023-04-01T07:00:37;3.40;;;1.10;;
54871;SDS011;43914;57.680;11.982;2023-04-01T07:06:04;3.00;;;1.00;;
54871;SDS011;43914;57.680;11.982;2023-04-01T07:08:35;4.30;;;1.10;;
54871;SDS011;43914;57.680;11.982;2023-04-01T07:11:09;6.00;;;1.50;;
54871;SDS011;43914;57.680;11.982;2023-04-01T07:13:39;2.90;;;1.00;;
54871;SDS011;43914;57.680;11.982;2023-04-01T07:16:13;3.80;;;1.00;;
54871;SDS011;43914;57.680;11.982;2023-04-01T07:18:48;5.80;;;1.00;;
54871;SDS011;43914;57.680;11.982;2023-04-01T07:24:56;3.90;;;1.60;;
54871;SDS011;43914;57.680;11.982;2023-04-01T07:27:08;4.00;;;0.90;;
54871;SDS011;43914;57.680;11.982;2023-04-01T07:29:35;4.70;;;1.00;;
54871;SDS011;43914;57.680;11.982;2023-04-01T07:32:15;5.30;;;1.20;;
54871;SDS011;43914;57.680;11.982;2023-04-01T07:34:45;3.60;;;0.90;;
54871;SDS011;43914;57.680;11.982;2023-04-01T07:39:57;5.40;;;1.30;;
54871;SDS011;43914;57.680;11.982;2023-04-01T07:45:31;3.30;;;0.90;;
54871;SDS011;43914;57.680;11.982;2023-04-01T07:51:13;3.20;;;1.00;;
54871;SDS011;43914;57.680;11.982;2023-04-01T08:04:50;3.50;;;1.10;;
54871;SDS011;43914;57.680;11.982;2023-04-01T08:10:32;2.80;;;0.90;;
54871;SDS011;43914;57.680;11.982;2023-04-01T08:18:27;5.80;;;1.10;;
54871;SDS011;43914;57.680;11.982;2023-04-01T08:21:07;5.00;;;0.90;;
54871;SDS011;43914;57.680;11.982;2023-04-01T08:23:44;5.20;;;1.00;;
54871;SDS011;43914;57.680;11.982;2023-04-01T08:26:29;3.20;;;0.90;;
54871;SDS011;43914;57.680;11.982;2023-04-01T08:31:53;3.10;;;0.80;;
54871;SDS011;43914;57.680;11.982;2023-04-01T08:34:36;3.20;;;0.80;;
54871;SDS011;43914;57.680;11.982;2023-04-01T08:37:05;2.30;;;0.90;;
54871;SDS011;43914;57.680;11.982;2023-04-01T08:57:01;3.00;;;0.90;;
54871;SDS011;43914;57.680;11.982;2023-04-01T09:07:55;3.60;;;0.90;;
54871;SDS011;43914;57.680;11.982;2023-04-01T09:15:37;4.10;;;0.90;;
54871;SDS011;43914;57.680;11.982;2023-04-01T09:18:21;3.90;;;0.90;;
54871;SDS011;43914;57.680;11.982;2023-04-01T09:21:44;2.40;;;0.90;;
54871;SDS011;43914;57.680;11.982;2023-04-01T09:24:23;3.30;;;0.80;;
54871;SDS011;43914;57.680;11.982;2023-04-01T10:25:37;2.80;;;0.90;;
54871;SDS011;43914;57.680;11.982;2023-04-01T11:02:26;1.50;;;0.70;;
54871;SDS011;43914;57.680;11.982;2023-04-01T11:05:17;2.40;;;0.80;;
54871;SDS011;43914;57.680;11.982;2023-04-01T11:10:53;5.60;;;0.80;;
54871;SDS011;43914;57.680;11.982;2023-04-01T11:46:24;2.80;;;0.90;;
54871;SDS011;43914;57.680;11.982;2023-04-01T11:51:49;1.60;;;0.70;;
54871;SDS011;43914;57.680;11.982;2023-04-01T11:54:31;3.50;;;0.90;;
54871;SDS011;43914;57.680;11.982;2023-04-01T12:08:04;2.80;;;0.80;;
54871;SDS011;43914;57.680;11.982;2023-04-01T12:35:25;1.90;;;0.70;;
54871;SDS011;43914;57.680;11.982;2023-04-01T12:38:24;2.00;;;0.60;;
54871;SDS011;43914;57.680;11.982;2023-04-01T12:41:03;2.80;;;0.60;;
54871;SDS011;43914;57.680;11.982;2023-04-01T12:46:44;3.00;;;0.80;;
54871;SDS011;43914;57.680;11.982;2023-04-01T12:52:15;2.10;;;0.80;;
54871;SDS011;43914;57.680;11.982;2023-04-01T12:55:08;2.50;;;0.70;;
54871;SDS011;43914;57.680;11.982;2023-04-01T13:28:32;5.00;;;0.70;;
54871;SDS011;43914;57.680;11.982;2023-04-01T13:34:15;3.60;;;0.70;;
54871;SDS011;43914;57.680;11.982;2023-04-01T13:42:02;2.40;;;0.70;;
54871;SDS011;43914;57.680;11.982;2023-04-01T13:45:34;2.40;;;0.70;;
54871;SDS011;43914;57.680;11.982;2023-04-01T14:11:17;2.40;;;0.70;;
54871;SDS011;43914;57.680;11.982;2023-04-01T14:35:38;3.20;;;0.70;;
54871;SDS011;43914;57.680;11.982;2023-04-01T14:38:31;2.10;;;0.60;;
54871;SDS011;43914;57.680;11.982;2023-04-01T14:41:21;2.20;;;0.60;;
54871;SDS011;43914;57.680;11.982;2023-04-01T14:49:22;3.40;;;0.60;;
54871;SDS011;43914;57.680;11.982;2023-04-01T14:54:35;3.90;;;0.80;;
54871;SDS011;43914;57.680;11.982;2023-04-01T14:57:05;3.10;;;0.80;;
54871;SDS011;43914;57.680;11.982;2023-04-01T15:00:29;1.80;;;0.60;;
54871;SDS011;43914;57.680;11.982;2023-04-01T15:02:45;2.10;;;0.60;;
54871;SDS011;43914;57.680;11.982;2023-04-01T15:13:28;3.30;;;0.70;;
54871;SDS011;43914;57.680;11.982;2023-04-01T15:18:34;2.20;;;0.60;;
54871;SDS011;43914;57.680;11.982;2023-04-01T15:32:13;1.80;;;0.60;;
54871;SDS011;43914;57.680;11.982;2023-04-01T15:35:13;1.90;;;0.70;;
54871;SDS011;43914;57.680;11.982;2023-04-01T15:37:52;2.60;;;0.60;;
54871;SDS011;43914;57.680;11.982;2023-04-01T15:40:29;2.60;;;0.70;;
54871;SDS011;43914;57.680;11.982;2023-04-01T15:54:51;2.90;;;0.80;;
54871;SDS011;43914;57.680;11.982;2023-04-01T16:02:58;2.70;;;0.60;;
54871;SDS011;43914;57.680;11.982;2023-04-01T16:22:24;1.50;;;0.60;;
54871;SDS011;43914;57.680;11.982;2023-04-01T16:33:28;2.30;;;0.70;;
54871;SDS011;43914;57.680;11.982;2023-04-01T16:36:10;2.90;;;0.90;;
54871;SDS011;43914;57.680;11.982;2023-04-01T16:44:50;1.80;;;0.70;;
54871;SDS011;43914;57.680;11.982;2023-04-01T16:47:22;1.80;;;0.70;;
54871;SDS011;43914;57.680;11.982;2023-04-01T16:49:54;2.60;;;0.70;;
54871;SDS011;43914;57.680;11.982;2023-04-01T16:55:41;2.50;;;0.90;;
54871;SDS011;43914;57.680;11.982;2023-04-01T16:58:21;3.70;;;0.90;;
54871;SDS011;43914;57.680;11.982;2023-04-01T17:00:58;2.60;;;0.90;;
54871;SDS011;43914;57.680;11.982;2023-04-01T17:03:32;2.30;;;0.70;;
54871;SDS011;43914;57.680;11.982;2023-04-01T17:21:57;1.70;;;0.70;;
54871;SDS011;43914;57.680;11.982;2023-04-01T17:30:24;3.90;;;1.00;;
54871;SDS011;43914;57.680;11.982;2023-04-01T17:44:25;2.10;;;0.80;;
54871;SDS011;43914;57.680;11.982;2023-04-01T17:59:02;4.60;;;0.90;;
54871;SDS011;43914;57.680;11.982;2023-04-01T18:06:35;2.40;;;0.80;;
54871;SDS011;43914;57.680;11.982;2023-04-01T18:14:37;2.10;;;0.70;;
54871;SDS011;43914;57.680;11.982;2023-04-01T18:20:54;3.10;;;0.90;;
54871;SDS011;43914;57.680;11.982;2023-04-01T18:26:22;2.80;;;0.80;;
54871;SDS011;43914;57.680;11.982;2023-04-01T18:29:13;3.10;;;0.90;;
54871;SDS011;43914;57.680;11.982;2023-04-01T18:31:45;2.80;;;0.90;;
54871;SDS011;43914;57.680;11.982;2023-04-01T18:40:15;4.00;;;1.40;;
54871;SDS011;43914;57.680;11.982;2023-04-01T18:45:57;3.30;;;1.00;;
54871;SDS011;43914;57.680;11.982;2023-04-01T18:51:34;2.80;;;0.90;;
54871;SDS011;43914;57.680;11.982;2023-04-01T18:54:11;3.60;;;0.90;;
54871;SDS011;43914;57.680;11.982;2023-04-01T18:56:47;3.70;;;0.90;;
54871;SDS011;43914;57.680;11.982;2023-04-01T19:04:52;4.70;;;1.00;;
54871;SDS011;43914;57.680;11.982;2023-04-01T19:09:51;3.50;;;1.00;;
54871;SDS011;43914;57.680;11.982;2023-04-01T19:12:24;3.40;;;1.00;;
54871;SDS011;43914;57.680;11.982;2023-04-01T19:17:48;3.30;;;1.00;;
54871;SDS011;43914;57.680;11.982;2023-04-01T19:20:34;4.20;;;1.10;;
54871;SDS011;43914;57.680;11.982;2023-04-01T19:25:57;3.50;;;1.10;;
54871;SDS011;43914;57.680;11.982;2023-04-01T19:31:33;3.10;;;1.10;;
54871;SDS011;43914;57.680;11.982;2023-04-01T19:34:03;5.30;;;1.00;;
54871;SDS011;43914;57.680;11.982;2023-04-01T19:36:55;5.30;;;1.40;;
54871;SDS011;43914;57.680;11.982;2023-04-01T19:39:35;5.40;;;1.30;;
54871;SDS011;43914;57.680;11.982;2023-04-01T19:42:08;6.10;;;1.40;;
54871;SDS011;43914;57.680;11.982;2023-04-01T19:45:14;5.10;;;1.30;;
54871;SDS011;43914;57.680;11.982;2023-04-01T19:48:13;4.80;;;1.30;;
54871;SDS011;43914;57.680;11.982;2023-04-01T19:51:10;4.40;;;1.30;;
54871;SDS011;43914;57.680;11.982;2023-04-01T19:53:47;4.80;;;1.30;;
54871;SDS011;43914;57.680;11.982;2023-04-01T19:56:38;6.50;;;1.50;;
54871;SDS011;43914;57.680;11.982;2023-04-01T20:01:59;5.60;;;1.50;;
54871;SDS011;43914;57.680;11.982;2023-04-01T20:04:42;3.70;;;1.10;;
54871;SDS011;43914;57.680;11.982;2023-04-01T20:15:28;7.70;;;1.30;;
54871;SDS011;43914;57.680;11.982;2023-04-01T20:18:21;6.80;;;1.40;;
54871;SDS011;43914;57.680;11.982;2023-04-01T20:20:56;6.40;;;1.50;;
54871;SDS011;43914;57.680;11.982;2023-04-01T20:26:01;4.30;;;1.30;;
54871;SDS011;43914;57.680;11.982;2023-04-01T20:37:44;8.70;;;1.50;;
54871;SDS011;43914;57.680;11.982;2023-04-01T20:51:46;6.00;;;1.70;;
54871;SDS011;43914;57.680;11.982;2023-04-01T21:08:08;7.30;;;2.50;;
54871;SDS011;43914;57.680;11.982;2023-04-01T21:49:19;4.80;;;1.50;;
54871;SDS011;43914;57.680;11.982;2023-04-01T22:00:19;5.50;;;1.60;;
54871;SDS011;43914;57.680;11.982;2023-04-01T22:17:00;5.60;;;1.50;;
54871;SDS011;43914;57.680;11.982;2023-04-01T22:28:20;6.60;;;1.80;;
54871;SDS011;43914;57.680;11.982;2023-04-01T22:30:55;6.30;;;1.60;;
54871;SDS011;43914;57.680;11.982;2023-04-01T22:42:35;7.20;;;1.80;;
54871;SDS011;43914;57.680;11.982;2023-04-01T22:56:07;6.50;;;1.50;;
54871;SDS011;43914;57.680;11.982;2023-04-01T22:58:52;5.80;;;1.40;;
54871;SDS011;43914;57.680;11.982;2023-04-01T23:01:39;5.10;;;1.50;;
54871;SDS011;43914;57.680;11.982;2023-04-01T23:04:10;6.10;;;1.40;;
54871;SDS011;43914;57.680;11.982;2023-04-01T23:06:43;5.40;;;1.40;;
54871;SDS011;43914;57.680;11.982;2023-04-01T23:09:29;5.00;;;1.50;;
54871;SDS011;43914;57.680;11.982;2023-04-01T23:11:59;5.40;;;1.40;;
54871;SDS011;43914;57.680;11.982;2023-04-01T23:14:37;5.80;;;1.50;;
54871;SDS011;43914;57.680;11.982;2023-04-01T23:17:33;5.10;;;1.50;;
54871;SDS011;43914;57.680;11.982;2023-04-01T23:38:18;5.00;;;1.30;;
54871;SDS011;43914;57.680;11.982;2023-04-01T23:40:50;7.30;;;1.50;;
54871;SDS011;43914;57.680;11.982;2023-04-01T23:43:26;4.40;;;1.20;;
54871;SDS011;43914;57.680;11.982;2023-04-01T23:45:56;4.60;;;1.40;;
54871;SDS011;43914;57.680;11.982;2023-04-01T23:48:27;6.00;;;1.50;;
54871;SDS011;43914;57.680;11.982;2023-04-01T23:50:57;7.30;;;1.60;;
54871;SDS011;43914;57.680;11.982;2023-04-01T23:53:24;5.40;;;1.40;;
54871;SDS011;43914;57.680;11.982;2023-04-01T23:55:53;4.60;;;1.40;;
